Hastings, Pennsylvania
Current Conditions -  °F | °C
As of 1:55 AM on Friday 28 Nov 2014 (Local Time) from KIDI Reporting Station
Haze Haze  
Wind Chill: 20°   Ceiling: 300
Heat Index: 28°   Visibility: 1.5mi
Dew Point: 27°   Wind: 8mph
Humidity: 93%   Direction: 300°WNW
Pressure: 30.19"   Gusts: NA
Location:  40.67°N, 78.71°W
Report Text: KIDI 280655Z AUTO 30007KT 1 1/2SM BR BKN003 BKN009 OVC013 M02/M03 A3019 RMK A01
Loading
Personal Weather Stations






























Interactive Weather Map New forecast layout! Learn more

10-Day Weather Forecast

Advertisements
Track Severe Weather on mobile